createdAt,value
2018-12-20T00:00:44.462Z,3.15
2018-12-20T00:03:12.193Z,3.08
2018-12-20T00:05:39.879Z,3.07
2018-12-20T00:08:07.604Z,3.10
2018-12-20T00:10:35.332Z,3.14
2018-12-20T00:13:03.017Z,3.07
2018-12-20T00:15:31.454Z,3.08
2018-12-20T00:17:59.130Z,3.07
2018-12-20T00:20:26.760Z,3.05
2018-12-20T00:22:55.381Z,3.04
2018-12-20T00:25:23.213Z,3.10
2018-12-20T00:27:50.895Z,3.11
2018-12-20T00:30:19.408Z,3.07
2018-12-20T00:32:47.104Z,2.94
2018-12-20T00:35:14.819Z,2.96
2018-12-20T00:37:42.562Z,2.93
2018-12-20T00:40:10.197Z,2.86
2018-12-20T00:42:37.814Z,2.91
2018-12-20T00:45:06.633Z,2.90
2018-12-20T00:47:35.292Z,2.98
2018-12-20T00:50:02.946Z,2.92
2018-12-20T00:52:30.578Z,2.92
2018-12-20T00:54:58.223Z,3.01
2018-12-20T00:57:27.074Z,3.00
2018-12-20T00:59:55.297Z,2.95
2018-12-20T01:02:23.024Z,2.92
2018-12-20T01:04:50.814Z,2.91
2018-12-20T01:07:18.684Z,2.99
2018-12-20T01:09:47.245Z,2.93
2018-12-20T01:12:14.885Z,2.91
2018-12-20T01:14:45.489Z,2.93
2018-12-20T01:17:12.404Z,2.93
2018-12-20T01:19:40.071Z,2.82
2018-12-20T01:22:07.840Z,2.91
2018-12-20T01:24:35.579Z,2.93
2018-12-20T01:27:04.265Z,2.74
2018-12-20T01:29:32.102Z,2.75
2018-12-20T01:32:00.008Z,2.79
2018-12-20T01:34:27.898Z,2.74
2018-12-20T01:36:56.957Z,2.71
2018-12-20T01:39:25.727Z,2.74
2018-12-20T01:41:53.426Z,2.69
2018-12-20T01:44:22.079Z,2.70
2018-12-20T01:46:50.512Z,2.84
2018-12-20T01:49:18.909Z,2.73
2018-12-20T01:51:46.546Z,2.68
2018-12-20T01:54:14.328Z,2.78
2018-12-20T01:56:43.121Z,2.86
2018-12-20T01:59:11.668Z,2.87
2018-12-20T02:01:39.435Z,2.73
2018-12-20T02:04:08.059Z,2.83
2018-12-20T02:06:36.562Z,2.88
2018-12-20T02:09:07.234Z,2.82
2018-12-20T02:11:35.756Z,2.84
2018-12-20T02:14:03.645Z,2.78
2018-12-20T02:16:32.358Z,2.83
2018-12-20T02:19:00.067Z,2.76
2018-12-20T02:21:27.874Z,2.79
2018-12-20T02:23:56.339Z,2.92
2018-12-20T02:26:24.049Z,2.85
2018-12-20T02:28:52.651Z,2.71
2018-12-20T02:31:20.330Z,2.75
2018-12-20T02:33:48.134Z,2.80
2018-12-20T02:36:16.804Z,2.87
2018-12-20T02:38:45.366Z,2.86
2018-12-20T02:41:13.248Z,2.87
2018-12-20T02:43:42.337Z,2.90
2018-12-20T02:46:11.044Z,2.79
2018-12-20T02:48:38.964Z,2.84
2018-12-20T02:51:07.114Z,2.77
2018-12-20T02:53:35.702Z,2.79
2018-12-20T02:56:04.617Z,2.60
2018-12-20T02:58:33.185Z,2.67
2018-12-20T03:01:01.881Z,2.74
2018-12-20T03:03:29.617Z,2.64
2018-12-20T03:05:57.381Z,2.72
2018-12-20T03:08:25.525Z,2.70
2018-12-20T03:10:55.094Z,2.63
2018-12-20T03:13:23.833Z,2.73
2018-12-20T03:15:52.442Z,2.77
2018-12-20T03:18:21.196Z,2.74
2018-12-20T03:20:49.080Z,2.70
2018-12-20T03:23:16.936Z,2.79
2018-12-20T03:25:45.578Z,2.75
2018-12-20T03:28:14.114Z,2.72
2018-12-20T03:30:41.831Z,2.66
2018-12-20T03:33:10.730Z,2.71
2018-12-20T03:35:39.443Z,2.65
2018-12-20T03:38:07.095Z,2.72
2018-12-20T03:40:35.226Z,2.83
2018-12-20T03:43:03.027Z,2.83
2018-12-20T03:45:30.835Z,2.72
2018-12-20T03:47:59.647Z,2.73
2018-12-20T03:50:27.622Z,2.79
2018-12-20T03:52:56.332Z,2.87
2018-12-20T03:55:25.174Z,2.89
2018-12-20T03:57:52.823Z,2.91
2018-12-20T04:00:20.625Z,2.94
2018-12-20T04:02:49.315Z,3.00
2018-12-20T04:05:17.281Z,2.93
2018-12-20T04:07:44.996Z,2.92
2018-12-20T04:10:12.854Z,2.99
2018-12-20T04:12:41.606Z,2.95
2018-12-20T04:15:09.378Z,2.98
2018-12-20T04:17:37.096Z,2.82
2018-12-20T04:20:05.426Z,2.72
2018-12-20T04:22:33.406Z,2.80
2018-12-20T04:25:01.209Z,2.75
2018-12-20T04:27:28.976Z,2.79
2018-12-20T04:29:57.706Z,2.85
2018-12-20T04:32:26.559Z,2.84
2018-12-20T04:34:55.377Z,2.86
2018-12-20T04:37:23.282Z,2.88
2018-12-20T04:39:51.353Z,2.84
2018-12-20T04:42:19.886Z,2.74
2018-12-20T04:44:48.605Z,2.71
2018-12-20T04:47:16.420Z,2.75
2018-12-20T04:49:45.140Z,2.70
2018-12-20T04:52:12.830Z,2.70
2018-12-20T04:54:41.250Z,2.71
2018-12-20T04:57:09.773Z,2.76
2018-12-20T04:59:38.376Z,2.66
2018-12-20T05:02:06.235Z,2.65
2018-12-20T05:04:33.900Z,2.69
2018-12-20T05:07:01.521Z,2.67
2018-12-20T05:09:30.447Z,2.78
2018-12-20T05:11:59.018Z,2.78
2018-12-20T05:14:26.862Z,2.66
2018-12-20T05:16:56.775Z,2.79
2018-12-20T05:19:26.241Z,2.79
2018-12-20T05:21:54.017Z,2.84
2018-12-20T05:24:21.942Z,2.92
2018-12-20T05:26:49.811Z,2.79
2018-12-20T05:29:17.688Z,2.68
2018-12-20T05:31:45.388Z,2.72
2018-12-20T05:34:13.028Z,2.73
2018-12-20T05:36:40.858Z,2.74
2018-12-20T05:39:09.342Z,2.80
2018-12-20T05:41:37.784Z,2.84
2018-12-20T05:44:06.745Z,2.78
2018-12-20T05:46:34.446Z,2.77
2018-12-20T05:49:02.183Z,2.72
2018-12-20T05:51:29.904Z,2.80
2018-12-20T05:53:58.496Z,2.69
2018-12-20T05:56:26.927Z,2.56
2018-12-20T05:58:55.591Z,2.70
2018-12-20T06:01:23.292Z,2.59
2018-12-20T06:03:52.102Z,2.65
2018-12-20T06:06:19.873Z,2.56
2018-12-20T06:08:48.507Z,2.57
2018-12-20T06:11:17.041Z,2.60
2018-12-20T06:13:44.737Z,2.62
2018-12-20T06:16:13.125Z,2.58
2018-12-20T06:18:41.030Z,2.61
2018-12-20T06:21:09.523Z,2.61
2018-12-20T06:23:37.178Z,2.70
2018-12-20T06:26:04.872Z,2.68
2018-12-20T06:28:32.499Z,2.64
2018-12-20T06:31:01.051Z,2.73
2018-12-20T06:33:28.696Z,2.68
2018-12-20T06:35:56.318Z,2.57
2018-12-20T06:38:24.624Z,2.68
2018-12-20T06:40:52.282Z,2.69
2018-12-20T06:43:20.043Z,2.73
2018-12-20T06:45:47.759Z,2.68
2018-12-20T06:48:15.386Z,2.72
2018-12-20T06:50:43.048Z,2.66
2018-12-20T06:53:10.669Z,2.76
2018-12-20T06:55:38.295Z,2.69
2018-12-20T06:58:06.117Z,2.65
2018-12-20T07:00:33.751Z,2.61
2018-12-20T07:03:02.286Z,2.59
2018-12-20T07:05:29.948Z,2.71
2018-12-20T07:07:58.475Z,2.66
2018-12-20T07:10:27.012Z,2.73
2018-12-20T07:12:55.861Z,2.69
2018-12-20T07:15:23.858Z,2.76
2018-12-20T07:17:51.515Z,2.76
2018-12-20T07:20:19.137Z,2.62
2018-12-20T07:22:46.787Z,2.68
2018-12-20T07:25:15.230Z,2.64
2018-12-20T07:27:42.846Z,2.62
2018-12-20T07:30:12.043Z,2.65
2018-12-20T07:32:39.742Z,2.71
2018-12-20T07:35:07.731Z,2.60
2018-12-20T07:37:36.169Z,2.62
2018-12-20T07:40:07.369Z,2.61
2018-12-20T07:42:34.988Z,2.69
2018-12-20T07:45:03.724Z,2.62
2018-12-20T07:47:31.355Z,2.58
2018-12-20T07:49:58.982Z,2.68
2018-12-20T07:52:27.549Z,2.65
2018-12-20T07:54:55.891Z,2.69
2018-12-20T07:57:25.400Z,2.62
2018-12-20T07:59:54.735Z,2.69
2018-12-20T08:02:22.355Z,2.62
2018-12-20T08:04:49.998Z,2.67
2018-12-20T08:07:18.463Z,2.56
2018-12-20T08:09:46.088Z,2.60
2018-12-20T08:12:14.590Z,2.62
2018-12-20T08:14:43.121Z,2.51
2018-12-20T08:17:10.786Z,2.52
2018-12-20T08:19:38.412Z,2.58
2018-12-20T08:22:06.073Z,2.64
2018-12-20T08:24:33.702Z,2.55
2018-12-20T08:27:01.361Z,2.51
2018-12-20T08:29:29.133Z,2.52
2018-12-20T08:31:56.751Z,2.51
2018-12-20T08:34:26.001Z,2.61
2018-12-20T08:36:55.002Z,2.55
2018-12-20T08:39:22.671Z,2.53
2018-12-20T08:41:50.290Z,2.57
2018-12-20T08:44:17.931Z,2.60
2018-12-20T08:46:45.553Z,2.51
2018-12-20T08:49:13.294Z,2.60
2018-12-20T08:51:48.840Z,2.62
2018-12-20T08:54:11.373Z,2.67
2018-12-20T08:56:39.813Z,2.73
2018-12-20T08:59:08.304Z,2.79
2018-12-20T09:01:35.930Z,2.83
2018-12-20T09:04:04.507Z,2.78
2018-12-20T09:06:32.944Z,2.87
2018-12-20T09:09:00.633Z,2.90
2018-12-20T09:11:28.264Z,2.91
2018-12-20T09:13:57.126Z,2.88
2018-12-20T09:16:25.232Z,2.84
2018-12-20T09:18:52.853Z,3.02
2018-12-20T09:21:20.483Z,3.12
2018-12-20T09:23:48.112Z,3.13
2018-12-20T09:26:16.589Z,3.22
2018-12-20T09:28:44.226Z,3.17
2018-12-20T09:31:11.880Z,3.12
2018-12-20T09:33:39.510Z,3.21
2018-12-20T09:36:07.126Z,3.11
2018-12-20T09:38:35.568Z,3.29
2018-12-20T09:41:03.419Z,3.29
2018-12-20T09:43:31.857Z,3.36
2018-12-20T09:45:59.486Z,3.30
2018-12-20T09:48:27.951Z,3.32
2018-12-20T09:50:56.536Z,3.30
2018-12-20T09:53:24.882Z,3.48
2018-12-20T09:55:52.507Z,3.33
2018-12-20T09:58:20.138Z,3.44
2018-12-20T10:00:47.756Z,3.42
2018-12-20T10:03:15.378Z,3.45
2018-12-20T10:05:43.013Z,3.50
2018-12-20T10:08:11.548Z,3.69
2018-12-20T10:10:39.170Z,3.69
2018-12-20T10:13:06.792Z,3.65
2018-12-20T10:15:34.421Z,3.81
2018-12-20T10:18:03.019Z,3.74
2018-12-20T10:20:30.664Z,3.61
2018-12-20T10:22:58.294Z,3.69
2018-12-20T10:25:27.799Z,3.82
2018-12-20T10:27:56.194Z,3.92
2018-12-20T10:30:23.818Z,3.88
2018-12-20T10:32:51.480Z,3.86
2018-12-20T10:35:19.155Z,3.92
2018-12-20T10:37:47.711Z,3.89
2018-12-20T10:40:15.417Z,3.90
2018-12-20T10:42:43.131Z,3.92
2018-12-20T10:45:10.747Z,3.95
2018-12-20T10:47:39.295Z,4.07
2018-12-20T10:50:07.986Z,4.14
2018-12-20T10:52:35.614Z,4.01
2018-12-20T10:55:04.811Z,4.23
2018-12-20T10:57:32.445Z,4.20
2018-12-20T11:00:00.909Z,4.17
2018-12-20T11:05:39.641Z,4.12
2018-12-20T11:08:13.637Z,4.12
2018-12-20T11:10:41.309Z,4.22
2018-12-20T11:13:11.294Z,4.25
2018-12-20T11:15:38.952Z,4.36
2018-12-20T11:18:07.386Z,4.35
2018-12-20T11:20:35.894Z,4.29
2018-12-20T11:23:03.580Z,4.25
2018-12-20T11:25:31.222Z,4.35
2018-12-20T11:27:58.844Z,4.33
2018-12-20T11:30:26.462Z,4.41
2018-12-20T11:32:54.835Z,4.38
2018-12-20T11:35:22.472Z,4.49
2018-12-20T11:37:50.098Z,4.40
2018-12-20T11:40:17.708Z,4.49
2018-12-20T11:42:45.376Z,4.60
2018-12-20T11:45:13.818Z,4.54
2018-12-20T11:47:45.841Z,4.72
2018-12-20T11:50:11.168Z,4.80
2018-12-20T11:52:42.485Z,4.82
2018-12-20T11:55:10.365Z,4.97
2018-12-20T11:57:38.006Z,5.04
2018-12-20T12:00:09.523Z,5.02
2018-12-20T12:02:37.182Z,4.93
2018-12-20T12:05:05.007Z,4.87
2018-12-20T12:07:33.552Z,5.00
2018-12-20T12:10:02.055Z,4.94
2018-12-20T12:12:30.619Z,4.84
2018-12-20T12:14:58.281Z,4.87
2018-12-20T12:17:26.391Z,5.00
2018-12-20T12:19:55.308Z,4.77
2018-12-20T12:22:25.065Z,4.78
2018-12-20T12:24:52.723Z,4.75
2018-12-20T12:27:20.360Z,4.77
2018-12-20T12:29:48.019Z,4.65
2018-12-20T12:32:15.640Z,4.52
2018-12-20T12:34:43.316Z,4.33
2018-12-20T12:37:11.099Z,4.39
2018-12-20T12:39:38.942Z,4.63
2018-12-20T12:42:07.464Z,4.62
2018-12-20T12:44:35.288Z,4.63
2018-12-20T12:47:04.894Z,4.49
2018-12-20T12:49:32.514Z,4.40
2018-12-20T12:52:00.149Z,4.53
2018-12-20T12:54:28.690Z,4.54
2018-12-20T12:56:56.328Z,4.54
2018-12-20T12:59:23.973Z,4.62
2018-12-20T13:01:51.593Z,4.80
2018-12-20T13:04:19.216Z,4.78
2018-12-20T13:06:46.843Z,4.65
2018-12-20T13:09:14.525Z,4.82
2018-12-20T13:11:42.146Z,4.86
2018-12-20T13:14:09.777Z,4.90
2018-12-20T13:16:37.418Z,4.95
2018-12-20T13:19:05.053Z,4.99
2018-12-20T13:21:33.000Z,4.95
2018-12-20T13:24:00.611Z,4.96
2018-12-20T13:26:28.235Z,5.05
2018-12-20T13:28:56.892Z,5.16
2018-12-20T13:31:25.343Z,5.17
2018-12-20T13:33:52.967Z,5.27
2018-12-20T13:36:20.752Z,5.38
2018-12-20T13:38:48.386Z,5.43
2018-12-20T13:41:16.041Z,5.13
2018-12-20T13:43:44.628Z,5.17
2018-12-20T13:46:12.422Z,5.09
2018-12-20T13:48:40.062Z,5.15
2018-12-20T13:51:07.695Z,5.05
2018-12-20T13:53:35.290Z,5.03
2018-12-20T13:56:02.959Z,4.90
2018-12-20T13:58:31.687Z,4.70
2018-12-20T14:01:00.367Z,4.69
2018-12-20T14:03:28.055Z,4.64
2018-12-20T14:05:56.592Z,4.69
2018-12-20T14:08:25.185Z,4.62
2018-12-20T14:10:52.810Z,4.62
2018-12-20T14:13:21.232Z,4.66
2018-12-20T14:15:49.773Z,4.67
2018-12-20T14:18:18.413Z,4.63
2018-12-20T14:20:46.828Z,4.62
2018-12-20T14:23:14.458Z,4.64
2018-12-20T14:25:42.937Z,4.61
2018-12-20T14:28:10.566Z,4.62
2018-12-20T14:30:38.228Z,4.54
2018-12-20T14:33:05.863Z,4.52
2018-12-20T14:35:33.511Z,4.58
2018-12-20T14:38:01.152Z,4.44
2018-12-20T14:40:28.771Z,4.62
2018-12-20T14:42:56.395Z,4.47
2018-12-20T14:45:24.872Z,4.53
2018-12-20T14:47:52.527Z,4.30
2018-12-20T14:50:20.146Z,4.23
2018-12-20T14:52:48.580Z,4.15
2018-12-20T14:55:16.223Z,4.26
2018-12-20T14:57:43.844Z,4.23
2018-12-20T15:00:11.538Z,4.20
2018-12-20T15:02:39.162Z,4.33
2018-12-20T15:05:07.280Z,4.32
2018-12-20T15:07:34.919Z,4.22
2018-12-20T15:10:02.932Z,4.16
2018-12-20T15:12:30.558Z,4.15
2018-12-20T15:14:58.187Z,4.06
2018-12-20T15:17:26.437Z,4.19
2018-12-20T15:19:55.086Z,4.15
2018-12-20T15:22:22.723Z,4.20
2018-12-20T15:24:50.425Z,4.06
2018-12-20T15:27:18.038Z,3.96
2018-12-20T15:29:45.667Z,3.80
2018-12-20T15:32:13.294Z,3.69
2018-12-20T15:34:40.925Z,3.61
2018-12-20T15:37:09.418Z,3.49
2018-12-20T15:39:37.047Z,3.30
2018-12-20T15:42:04.691Z,3.31
2018-12-20T15:44:32.319Z,3.26
2018-12-20T15:46:59.940Z,3.23
2018-12-20T15:49:27.570Z,3.25
2018-12-20T15:51:57.125Z,3.24
2018-12-20T15:54:25.341Z,3.36
2018-12-20T15:56:53.015Z,3.42
2018-12-20T15:59:20.640Z,3.52
2018-12-20T16:01:48.264Z,3.62
2018-12-20T16:04:16.898Z,3.68
2018-12-20T16:06:45.117Z,3.77
2018-12-20T16:09:12.757Z,3.88
2018-12-20T16:11:40.396Z,3.94
2018-12-20T16:14:08.091Z,3.97
2018-12-20T16:16:35.731Z,3.92
2018-12-20T16:19:05.067Z,3.98
2018-12-20T16:21:33.041Z,3.92
2018-12-20T16:24:00.654Z,3.93
2018-12-20T16:26:28.278Z,3.83
2018-12-20T16:28:56.716Z,3.95
2018-12-20T16:31:24.482Z,4.01
2018-12-20T16:33:52.121Z,4.12
2018-12-20T16:36:19.747Z,4.05
2018-12-20T16:38:47.373Z,4.14
2018-12-20T16:41:15.071Z,4.08
2018-12-20T16:43:42.689Z,4.01
2018-12-20T16:46:11.397Z,3.99
2018-12-20T16:48:39.067Z,4.03
2018-12-20T16:51:06.699Z,4.01
2018-12-20T16:53:34.334Z,3.96
2018-12-20T16:56:02.884Z,4.00
2018-12-20T16:58:30.516Z,3.89
2018-12-20T17:00:59.032Z,3.91
2018-12-20T17:03:26.653Z,3.84
2018-12-20T17:05:54.913Z,4.02
2018-12-20T17:08:22.528Z,4.00
2018-12-20T17:10:50.156Z,4.03
2018-12-20T17:13:17.788Z,3.98
2018-12-20T17:15:45.404Z,4.04
2018-12-20T17:18:13.038Z,3.99
2018-12-20T17:20:40.695Z,3.90
2018-12-20T17:23:08.484Z,3.87
2018-12-20T17:25:36.095Z,3.89
2018-12-20T17:28:03.805Z,3.85
2018-12-20T17:30:31.518Z,4.02
2018-12-20T17:32:59.208Z,4.05
2018-12-20T17:35:27.831Z,4.08
2018-12-20T17:37:55.599Z,4.11
2018-12-20T17:40:24.558Z,4.28
2018-12-20T17:42:52.185Z,4.26
2018-12-20T17:45:19.802Z,4.21
2018-12-20T17:47:47.434Z,4.25
2018-12-20T17:50:15.066Z,4.32
2018-12-20T17:52:42.701Z,4.30
2018-12-20T17:55:10.422Z,4.17
2018-12-20T17:57:38.047Z,4.13
2018-12-20T18:00:14.945Z,4.19
2018-12-20T18:02:43.523Z,4.11
2018-12-20T18:05:11.327Z,4.14
2018-12-20T18:07:39.144Z,4.18
2018-12-20T18:10:08.779Z,4.21
2018-12-20T18:12:37.229Z,4.28
2018-12-20T18:15:06.531Z,4.30
2018-12-20T18:17:34.208Z,4.32
2018-12-20T18:20:02.647Z,4.35
2018-12-20T18:22:31.055Z,4.38
2018-12-20T18:24:58.672Z,4.42
2018-12-20T18:27:27.412Z,4.45
2018-12-20T18:29:57.007Z,4.35
2018-12-20T18:32:25.348Z,4.45
2018-12-20T18:34:53.810Z,4.42
2018-12-20T18:37:21.438Z,4.50
2018-12-20T18:39:49.059Z,4.47
2018-12-20T18:42:16.842Z,4.48
2018-12-20T18:44:44.676Z,4.53
2018-12-20T18:49:57.698Z,4.49
2018-12-20T18:52:26.307Z,4.52
2018-12-20T18:54:54.933Z,4.49
2018-12-20T18:57:22.546Z,4.58
2018-12-20T18:59:50.213Z,4.51
2018-12-20T19:02:18.749Z,4.59
2018-12-20T19:04:47.290Z,4.74
2018-12-20T19:07:15.974Z,4.75
2018-12-20T19:09:43.601Z,4.83
2018-12-20T19:12:11.263Z,4.85
2018-12-20T19:14:38.907Z,4.81
2018-12-20T19:17:06.595Z,4.83
2018-12-20T19:19:35.296Z,4.83
2018-12-20T19:22:03.109Z,4.78
2018-12-20T19:24:30.708Z,4.81
2018-12-20T19:26:59.150Z,4.74
2018-12-20T19:29:26.779Z,4.78
2018-12-20T19:31:56.196Z,4.80
2018-12-20T19:34:23.953Z,4.73
2018-12-20T19:36:51.738Z,4.78
2018-12-20T19:39:19.418Z,4.77
2018-12-20T19:41:47.215Z,4.88
2018-12-20T19:44:15.024Z,4.92
2018-12-20T19:46:42.644Z,4.85
2018-12-20T19:49:10.543Z,4.85
2018-12-20T19:51:38.607Z,4.88
2018-12-20T19:54:07.217Z,4.86
2018-12-20T19:56:34.889Z,4.87
2018-12-20T19:59:02.553Z,4.86
2018-12-20T20:01:33.108Z,4.86
2018-12-20T20:04:00.947Z,4.85
2018-12-20T20:06:28.559Z,4.81
2018-12-20T20:08:56.206Z,4.82
2018-12-20T20:11:25.088Z,4.81
2018-12-20T20:13:52.782Z,4.81
2018-12-20T20:16:20.474Z,4.82
2018-12-20T20:18:48.111Z,4.81
2018-12-20T20:21:16.791Z,4.84
2018-12-20T20:23:44.584Z,4.90
2018-12-20T20:26:12.393Z,4.79
2018-12-20T20:28:40.048Z,4.72
2018-12-20T20:31:08.486Z,4.69
2018-12-20T20:33:36.972Z,4.62
2018-12-20T20:36:04.601Z,4.57
2018-12-20T20:38:33.294Z,4.49
2018-12-20T20:41:01.106Z,4.45
2018-12-20T20:43:28.777Z,4.31
2018-12-20T20:45:57.270Z,4.24
2018-12-20T20:48:25.008Z,4.15
2018-12-20T20:50:52.817Z,4.07
2018-12-20T20:53:21.634Z,4.05
2018-12-20T20:55:49.437Z,3.97
2018-12-20T20:58:17.231Z,3.92
2018-12-20T21:00:45.020Z,3.91
2018-12-20T21:03:12.640Z,3.89
2018-12-20T21:05:40.283Z,3.92
2018-12-20T21:08:07.911Z,4.00
2018-12-20T21:10:35.551Z,3.92
2018-12-20T21:13:03.503Z,3.99
2018-12-20T21:15:31.296Z,3.99
2018-12-20T21:17:59.111Z,3.95
2018-12-20T21:20:30.920Z,3.99
2018-12-20T21:22:57.396Z,3.98
2018-12-20T21:25:25.976Z,4.00
2018-12-20T21:27:54.787Z,3.95
2018-12-20T21:30:22.927Z,3.94
2018-12-20T21:32:50.579Z,3.95
2018-12-20T21:35:18.369Z,3.98
2018-12-20T21:37:46.023Z,4.01
2018-12-20T21:40:13.655Z,3.99
2018-12-20T21:42:41.287Z,4.08
2018-12-20T21:45:09.011Z,4.13
2018-12-20T21:47:36.671Z,4.08
2018-12-20T21:50:06.190Z,4.08
2018-12-20T21:52:34.905Z,4.02
2018-12-20T21:55:02.598Z,3.97
2018-12-20T21:57:30.242Z,3.98
2018-12-20T22:00:01.275Z,3.98
2018-12-20T22:02:27.601Z,3.97
2018-12-20T22:04:55.619Z,3.99
2018-12-20T22:07:23.263Z,3.99
2018-12-20T22:09:50.946Z,4.02
2018-12-20T22:12:18.627Z,4.04
2018-12-20T22:14:46.257Z,4.01
2018-12-20T22:17:14.133Z,4.00
2018-12-20T22:19:41.770Z,3.97
2018-12-20T22:22:09.387Z,3.84
2018-12-20T22:24:37.006Z,3.78
2018-12-20T22:27:04.689Z,3.70
2018-12-20T22:29:33.152Z,3.70
2018-12-20T22:32:00.866Z,3.77
2018-12-20T22:34:28.658Z,3.81
2018-12-20T22:36:56.294Z,3.91
2018-12-20T22:39:25.163Z,3.94
2018-12-20T22:41:52.841Z,3.97
2018-12-20T22:44:20.635Z,4.06
2018-12-20T22:46:48.252Z,4.05
2018-12-20T22:49:15.906Z,4.08
2018-12-20T22:51:44.449Z,4.17
2018-12-20T22:54:13.162Z,4.14
2018-12-20T22:56:40.971Z,4.12
2018-12-20T22:59:08.770Z,4.05
2018-12-20T23:01:36.561Z,3.95
2018-12-20T23:04:04.382Z,3.84
2018-12-20T23:06:32.000Z,3.82
2018-12-20T23:08:59.809Z,3.77
2018-12-20T23:11:27.668Z,3.70
2018-12-20T23:13:56.394Z,3.62
2018-12-20T23:16:24.901Z,3.60
2018-12-20T23:18:52.711Z,3.56
2018-12-20T23:21:21.271Z,3.58
2018-12-20T23:23:48.933Z,3.58
2018-12-20T23:26:16.727Z,3.59
2018-12-20T23:28:44.435Z,3.68
2018-12-20T23:31:12.193Z,3.68
2018-12-20T23:33:40.031Z,3.75
2018-12-20T23:36:07.842Z,3.78
2018-12-20T23:38:35.626Z,3.86
2018-12-20T23:41:04.418Z,3.93
2018-12-20T23:43:32.214Z,3.94
2018-12-20T23:46:00.678Z,3.98
2018-12-20T23:48:28.297Z,3.98
2018-12-20T23:50:56.831Z,3.92
2018-12-20T23:53:26.035Z,3.85
2018-12-20T23:55:54.810Z,3.77
2018-12-20T23:58:22.492Z,3.70
